カーナーク/チューレ空軍基地 の空港の天気 - METARとTAF

チューレ空軍基地 ( BGTL / THU ) - グリーンランド カーナーク
飛行場実況気象(Metar)
観測時間12/10 00:56 AST (12/10 04:56 UTC)
風向・風速南東 12m/s 瞬間風速15m/s
視程9000m
天気現象煙霧
全天の8割程度の雲 雲底高度 2130m
気温-19.6℃
湿度74%
気圧1018.1hPa
METARBGTL 100456Z AUTO 13024G30KT 9000 HZ BKN070 M20/M23 A3009 RMK AO2 PK WND 13032/39 SLP181 T11961230 TSNO CHINO RWY26 $
過去の天気等 Google飛行場航空写真 Wunderground天気予報

過去48時間のMETAR

飛行場予報(TAF)
データがありません